sensor_id;sensor_type;location;lat;lon;timestamp;pressure;altitude;pressure_sealevel;temperature;humidity
18790;BME280;9523;42.650;23.386;2023-04-23T00:00:17;94571.53;;;8.27;100.00
18790;BME280;9523;42.650;23.386;2023-04-23T00:02:45;94582.66;;;8.14;100.00
18790;BME280;9523;42.650;23.386;2023-04-23T00:05:14;94582.47;;;8.00;100.00
18790;BME280;9523;42.650;23.386;2023-04-23T00:07:41;94584.88;;;7.91;100.00
18790;BME280;9523;42.650;23.386;2023-04-23T00:10:09;94575.41;;;7.95;100.00
18790;BME280;9523;42.650;23.386;2023-04-23T00:12:37;94573.47;;;8.11;100.00
18790;BME280;9523;42.650;23.386;2023-04-23T00:15:06;94574.50;;;8.15;100.00
18790;BME280;9523;42.650;23.386;2023-04-23T00:17:33;94579.19;;;8.23;100.00
18790;BME280;9523;42.650;23.386;2023-04-23T00:20:00;94569.44;;;8.24;100.00
18790;BME280;9523;42.650;23.386;2023-04-23T00:22:27;94574.19;;;8.22;100.00
18790;BME280;9523;42.650;23.386;2023-04-23T00:24:54;94580.78;;;8.19;100.00
18790;BME280;9523;42.650;23.386;2023-04-23T00:27:21;94577.84;;;8.26;100.00
18790;BME280;9523;42.650;23.386;2023-04-23T00:29:47;94573.47;;;8.11;100.00
18790;BME280;9523;42.650;23.386;2023-04-23T00:32:17;94578.69;;;8.16;100.00
18790;BME280;9523;42.650;23.386;2023-04-23T00:34:43;94575.31;;;8.11;100.00
18790;BME280;9523;42.650;23.386;2023-04-23T00:37:13;94573.00;;;8.04;100.00
18790;BME280;9523;42.650;23.386;2023-04-23T00:39:40;94572.22;;;8.03;100.00
18790;BME280;9523;42.650;23.386;2023-04-23T00:42:07;94565.38;;;8.02;100.00
18790;BME280;9523;42.650;23.386;2023-04-23T00:44:36;94571.19;;;7.99;100.00
18790;BME280;9523;42.650;23.386;2023-04-23T00:47:04;94565.94;;;7.94;100.00
18790;BME280;9523;42.650;23.386;2023-04-23T00:49:33;94568.59;;;7.94;100.00
18790;BME280;9523;42.650;23.386;2023-04-23T00:52:00;94567.56;;;7.90;100.00
18790;BME280;9523;42.650;23.386;2023-04-23T00:54:27;94568.09;;;7.87;100.00
18790;BME280;9523;42.650;23.386;2023-04-23T00:56:54;94573.88;;;7.84;100.00
18790;BME280;9523;42.650;23.386;2023-04-23T00:59:22;94568.09;;;7.87;100.00
18790;BME280;9523;42.650;23.386;2023-04-23T01:01:50;94567.88;;;7.84;100.00
18790;BME280;9523;42.650;23.386;2023-04-23T01:04:17;94576.53;;;7.79;100.00
18790;BME280;9523;42.650;23.386;2023-04-23T01:06:47;94570.03;;;7.72;100.00
18790;BME280;9523;42.650;23.386;2023-04-23T01:09:14;94575.84;;;7.64;100.00
18790;BME280;9523;42.650;23.386;2023-04-23T01:11:42;94578.72;;;7.62;100.00
18790;BME280;9523;42.650;23.386;2023-04-23T01:14:13;94574.53;;;7.61;100.00
18790;BME280;9523;42.650;23.386;2023-04-23T01:16:40;94572.19;;;7.60;100.00
18790;BME280;9523;42.650;23.386;2023-04-23T01:19:08;94570.84;;;7.62;100.00
18790;BME280;9523;42.650;23.386;2023-04-23T01:21:36;94575.56;;;7.65;100.00
18790;BME280;9523;42.650;23.386;2023-04-23T01:24:08;94572.13;;;7.70;100.00
18790;BME280;9523;42.650;23.386;2023-04-23T01:26:35;94570.84;;;7.62;100.00
18790;BME280;9523;42.650;23.386;2023-04-23T01:29:02;94567.19;;;7.53;100.00
18790;BME280;9523;42.650;23.386;2023-04-23T01:31:29;94568.53;;;7.50;100.00
18790;BME280;9523;42.650;23.386;2023-04-23T01:33:57;94574.63;;;7.36;100.00
18790;BME280;9523;42.650;23.386;2023-04-23T01:36:25;94572.03;;;7.31;100.00
18790;BME280;9523;42.650;23.386;2023-04-23T01:38:53;94572.31;;;7.19;100.00
18790;BME280;9523;42.650;23.386;2023-04-23T01:41:21;94572.59;;;7.13;100.00
18790;BME280;9523;42.650;23.386;2023-04-23T01:43:48;94575.19;;;7.18;100.00
18790;BME280;9523;42.650;23.386;2023-04-23T01:46:15;94575.75;;;7.20;100.00
18790;BME280;9523;42.650;23.386;2023-04-23T01:48:42;94581.50;;;7.22;100.00
18790;BME280;9523;42.650;23.386;2023-04-23T01:51:09;94579.91;;;7.21;100.00
18790;BME280;9523;42.650;23.386;2023-04-23T01:53:35;94577.84;;;7.13;100.00
18790;BME280;9523;42.650;23.386;2023-04-23T01:56:02;94582.81;;;7.14;100.00
18790;BME280;9523;42.650;23.386;2023-04-23T01:58:32;94594.13;;;7.09;100.00
18790;BME280;9523;42.650;23.386;2023-04-23T02:00:59;94589.16;;;7.03;100.00
18790;BME280;9523;42.650;23.386;2023-04-23T02:03:27;94587.31;;;6.98;100.00
18790;BME280;9523;42.650;23.386;2023-04-23T02:05:55;94587.56;;;6.97;100.00
18790;BME280;9523;42.650;23.386;2023-04-23T02:08:21;94593.59;;;7.02;100.00
18790;BME280;9523;42.650;23.386;2023-04-23T02:10:48;94588.41;;;6.87;100.00
18790;BME280;9523;42.650;23.386;2023-04-23T02:13:15;94594.94;;;6.85;100.00
18790;BME280;9523;42.650;23.386;2023-04-23T02:15:44;94587.84;;;6.85;100.00
18790;BME280;9523;42.650;23.386;2023-04-23T02:18:10;94562.44;;;6.71;100.00
18790;BME280;9523;42.650;23.386;2023-04-23T02:20:37;94586.31;;;6.74;100.00
18790;BME280;9523;42.650;23.386;2023-04-23T02:23:05;94597.84;;;6.68;100.00
18790;BME280;9523;42.650;23.386;2023-04-23T02:25:32;94579.22;;;6.70;100.00
18790;BME280;9523;42.650;23.386;2023-04-23T02:27:59;94586.84;;;6.71;100.00
18790;BME280;9523;42.650;23.386;2023-04-23T02:30:30;94588.69;;;6.76;100.00
18790;BME280;9523;42.650;23.386;2023-04-23T02:32:58;94598.59;;;6.89;100.00
18790;BME280;9523;42.650;23.386;2023-04-23T02:35:25;94569.00;;;6.83;100.00
18790;BME280;9523;42.650;23.386;2023-04-23T02:37:53;94592.06;;;6.91;100.00
18790;BME280;9523;42.650;23.386;2023-04-23T02:40:20;94586.53;;;6.98;100.00
18790;BME280;9523;42.650;23.386;2023-04-23T02:42:48;94583.66;;;6.99;100.00
18790;BME280;9523;42.650;23.386;2023-04-23T02:45:15;94585.50;;;6.99;100.00
18790;BME280;9523;42.650;23.386;2023-04-23T02:47:42;94588.91;;;6.94;100.00
18790;BME280;9523;42.650;23.386;2023-04-23T02:50:10;94588.91;;;6.89;100.00
18790;BME280;9523;42.650;23.386;2023-04-23T02:52:37;94577.91;;;6.77;100.00
18790;BME280;9523;42.650;23.386;2023-04-23T02:55:05;94589.97;;;6.78;100.00
18790;BME280;9523;42.650;23.386;2023-04-23T02:57:32;94590.75;;;6.74;100.00
18790;BME280;9523;42.650;23.386;2023-04-23T02:59:58;94583.69;;;6.64;100.00
18790;BME280;9523;42.650;23.386;2023-04-23T03:02:25;94591.03;;;6.67;100.00
18790;BME280;9523;42.650;23.386;2023-04-23T03:04:52;94590.00;;;6.68;100.00
18790;BME280;9523;42.650;23.386;2023-04-23T03:07:21;94594.69;;;6.66;100.00
18790;BME280;9523;42.650;23.386;2023-04-23T03:09:47;94596.78;;;6.74;100.00
18790;BME280;9523;42.650;23.386;2023-04-23T03:12:14;94589.97;;;6.73;100.00
18790;BME280;9523;42.650;23.386;2023-04-23T03:14:42;94599.44;;;6.64;100.00
18790;BME280;9523;42.650;23.386;2023-04-23T03:17:09;94599.19;;;6.60;100.00
18790;BME280;9523;42.650;23.386;2023-04-23T03:19:36;94596.00;;;6.58;100.00
18790;BME280;9523;42.650;23.386;2023-04-23T03:22:02;94604.41;;;6.50;100.00
18790;BME280;9523;42.650;23.386;2023-04-23T03:24:31;94609.66;;;6.50;100.00
18790;BME280;9523;42.650;23.386;2023-04-23T03:26:58;94612.00;;;6.47;100.00
18790;BME280;9523;42.650;23.386;2023-04-23T03:29:25;94601.00;;;6.55;100.00
18790;BME280;9523;42.650;23.386;2023-04-23T03:31:52;94599.41;;;6.49;100.00
18790;BME280;9523;42.650;23.386;2023-04-23T03:34:19;94607.53;;;6.57;100.00
18790;BME280;9523;42.650;23.386;2023-04-23T03:36:46;94611.72;;;6.53;100.00
18790;BME280;9523;42.650;23.386;2023-04-23T03:39:15;94610.97;;;6.63;100.00
18790;BME280;9523;42.650;23.386;2023-04-23T03:41:43;94615.69;;;6.66;100.00
18790;BME280;9523;42.650;23.386;2023-04-23T03:44:10;94613.59;;;6.68;100.00
18790;BME280;9523;42.650;23.386;2023-04-23T03:46:37;94614.63;;;6.62;100.00
18790;BME280;9523;42.650;23.386;2023-04-23T03:49:03;94620.91;;;6.66;100.00
18790;BME280;9523;42.650;23.386;2023-04-23T03:51:30;94620.91;;;6.71;100.00
18790;BME280;9523;42.650;23.386;2023-04-23T03:53:57;94618.31;;;6.71;100.00
18790;BME280;9523;42.650;23.386;2023-04-23T03:56:24;94620.66;;;6.73;100.00
18790;BME280;9523;42.650;23.386;2023-04-23T03:58:52;94632.47;;;6.80;100.00
18790;BME280;9523;42.650;23.386;2023-04-23T04:01:19;94629.03;;;6.75;100.00
18790;BME280;9523;42.650;23.386;2023-04-23T04:03:46;94634.81;;;6.72;100.00
18790;BME280;9523;42.650;23.386;2023-04-23T04:06:13;94635.09;;;6.75;100.00
18790;BME280;9523;42.650;23.386;2023-04-23T04:08:40;94639.25;;;6.81;100.00
18790;BME280;9523;42.650;23.386;2023-04-23T04:11:06;94640.31;;;6.85;100.00
18790;BME280;9523;42.650;23.386;2023-04-23T04:13:33;94621.69;;;6.87;100.00
18790;BME280;9523;42.650;23.386;2023-04-23T04:16:02;94642.13;;;6.85;100.00
18790;BME280;9523;42.650;23.386;2023-04-23T04:18:29;94636.63;;;6.86;100.00
18790;BME280;9523;42.650;23.386;2023-04-23T04:20:55;94638.22;;;6.87;100.00
18790;BME280;9523;42.650;23.386;2023-04-23T04:23:22;94613.56;;;6.78;100.00
18790;BME280;9523;42.650;23.386;2023-04-23T04:25:50;94639.81;;;6.83;100.00
18790;BME280;9523;42.650;23.386;2023-04-23T04:28:20;94639.00;;;6.83;100.00
18790;BME280;9523;42.650;23.386;2023-04-23T04:30:47;94596.28;;;6.47;100.00
18790;BME280;9523;42.650;23.386;2023-04-23T04:33:16;94648.19;;;6.80;100.00
18790;BME280;9523;42.650;23.386;2023-04-23T04:35:43;94646.88;;;6.83;100.00
18790;BME280;9523;42.650;23.386;2023-04-23T04:38:11;94647.13;;;6.96;100.00
18790;BME280;9523;42.650;23.386;2023-04-23T04:40:38;94647.41;;;7.00;100.00
18790;BME280;9523;42.650;23.386;2023-04-23T04:43:05;94653.16;;;7.07;100.00
18790;BME280;9523;42.650;23.386;2023-04-23T04:45:32;94648.16;;;7.05;100.00
18790;BME280;9523;42.650;23.386;2023-04-23T04:47:58;94649.75;;;7.06;100.00
18790;BME280;9523;42.650;23.386;2023-04-23T04:50:27;94658.91;;;7.14;100.00
18790;BME280;9523;42.650;23.386;2023-04-23T04:52:53;94656.03;;;7.16;100.00
18790;BME280;9523;42.650;23.386;2023-04-23T04:55:20;94656.53;;;7.18;100.00
18790;BME280;9523;42.650;23.386;2023-04-23T04:57:47;94654.16;;;7.21;100.00
18790;BME280;9523;42.650;23.386;2023-04-23T05:00:20;94659.41;;;7.26;100.00
18790;BME280;9523;42.650;23.386;2023-04-23T05:02:49;94659.41;;;7.31;100.00
18790;BME280;9523;42.650;23.386;2023-04-23T05:05:17;94662.81;;;7.37;100.00
18790;BME280;9523;42.650;23.386;2023-04-23T05:07:46;94656.75;;;7.46;100.00
18790;BME280;9523;42.650;23.386;2023-04-23T05:10:13;94658.59;;;7.51;100.00
18790;BME280;9523;42.650;23.386;2023-04-23T05:12:41;94664.34;;;7.53;100.00
18790;BME280;9523;42.650;23.386;2023-04-23T05:15:09;94663.78;;;7.61;100.00
18790;BME280;9523;42.650;23.386;2023-04-23T05:17:37;94640.44;;;7.60;100.00
18790;BME280;9523;42.650;23.386;2023-04-23T05:20:06;94668.72;;;7.78;100.00
18790;BME280;9523;42.650;23.386;2023-04-23T05:22:35;94664.78;;;7.80;100.00
18790;BME280;9523;42.650;23.386;2023-04-23T05:25:05;94661.84;;;7.92;100.00
18790;BME280;9523;42.650;23.386;2023-04-23T05:27:32;94655.75;;;8.01;100.00
18790;BME280;9523;42.650;23.386;2023-04-23T05:29:59;94667.03;;;8.07;100.00
18790;BME280;9523;42.650;23.386;2023-04-23T05:32:26;94659.91;;;8.13;100.00
18790;BME280;9523;42.650;23.386;2023-04-23T05:34:53;94671.16;;;8.23;100.00
18790;BME280;9523;42.650;23.386;2023-04-23T05:37:20;94673.00;;;8.28;100.00
18790;BME280;9523;42.650;23.386;2023-04-23T05:39:47;94668.22;;;8.40;100.00
18790;BME280;9523;42.650;23.386;2023-04-23T05:42:15;94670.78;;;8.50;100.00
18790;BME280;9523;42.650;23.386;2023-04-23T05:44:42;94671.47;;;8.61;100.00
18790;BME280;9523;42.650;23.386;2023-04-23T05:47:10;94655.22;;;8.54;100.00
18790;BME280;9523;42.650;23.386;2023-04-23T05:49:36;94674.78;;;8.76;100.00
18790;BME280;9523;42.650;23.386;2023-04-23T05:52:03;94678.19;;;8.82;100.00
18790;BME280;9523;42.650;23.386;2023-04-23T05:54:30;94684.47;;;8.86;100.00
18790;BME280;9523;42.650;23.386;2023-04-23T05:56:57;94671.53;;;8.89;100.00
18790;BME280;9523;42.650;23.386;2023-04-23T05:59:25;94665.78;;;8.87;100.00
18790;BME280;9523;42.650;23.386;2023-04-23T06:01:52;94667.81;;;8.95;100.00
18790;BME280;9523;42.650;23.386;2023-04-23T06:04:19;94679.03;;;9.06;100.00
18790;BME280;9523;42.650;23.386;2023-04-23T06:06:46;94679.69;;;9.22;100.00
18790;BME280;9523;42.650;23.386;2023-04-23T06:09:13;94662.94;;;9.13;100.00
18790;BME280;9523;42.650;23.386;2023-04-23T06:11:39;94671.19;;;9.30;100.00
18790;BME280;9523;42.650;23.386;2023-04-23T06:14:06;94671.16;;;9.35;100.00
18790;BME280;9523;42.650;23.386;2023-04-23T06:16:34;94677.09;;;9.46;100.00
18790;BME280;9523;42.650;23.386;2023-04-23T06:19:02;94623.06;;;9.24;100.00
18790;BME280;9523;42.650;23.386;2023-04-23T06:21:30;94665.41;;;9.57;100.00
18790;BME280;9523;42.650;23.386;2023-04-23T06:23:56;94669.78;;;9.66;100.00
18790;BME280;9523;42.650;23.386;2023-04-23T06:26:23;94660.75;;;9.72;100.00
18790;BME280;9523;42.650;23.386;2023-04-23T06:28:50;94660.44;;;9.79;100.00
18790;BME280;9523;42.650;23.386;2023-04-23T06:31:17;94675.63;;;9.87;100.00
18790;BME280;9523;42.650;23.386;2023-04-23T06:33:46;94682.59;;;9.97;100.00
18790;BME280;9523;42.650;23.386;2023-04-23T06:36:12;94670.88;;;10.08;100.00
18790;BME280;9523;42.650;23.386;2023-04-23T06:38:39;94665.06;;;10.11;100.00
18790;BME280;9523;42.650;23.386;2023-04-23T06:41:06;94665.50;;;10.18;100.00
18790;BME280;9523;42.650;23.386;2023-04-23T06:43:35;94674.38;;;10.27;100.00
18790;BME280;9523;42.650;23.386;2023-04-23T06:46:02;94671.16;;;10.30;100.00
18790;BME280;9523;42.650;23.386;2023-04-23T06:48:29;94670.53;;;10.38;100.00
18790;BME280;9523;42.650;23.386;2023-04-23T06:50:58;94664.31;;;10.48;100.00
18790;BME280;9523;42.650;23.386;2023-04-23T06:53:24;94667.41;;;10.55;100.00
18790;BME280;9523;42.650;23.386;2023-04-23T06:55:51;94661.03;;;10.56;100.00
18790;BME280;9523;42.650;23.386;2023-04-23T06:58:18;94669.59;;;10.66;100.00
18790;BME280;9523;42.650;23.386;2023-04-23T07:00:46;94662.38;;;10.72;100.00
18790;BME280;9523;42.650;23.386;2023-04-23T07:03:13;94660.28;;;10.88;100.00
18790;BME280;9523;42.650;23.386;2023-04-23T07:05:40;94645.03;;;10.84;100.00
18790;BME280;9523;42.650;23.386;2023-04-23T07:08:08;94668.19;;;11.06;100.00
18790;BME280;9523;42.650;23.386;2023-04-23T07:10:35;94657.25;;;11.13;100.00
18790;BME280;9523;42.650;23.386;2023-04-23T07:13:02;94668.63;;;11.27;100.00
18790;BME280;9523;42.650;23.386;2023-04-23T07:15:28;94649.16;;;11.23;100.00
18790;BME280;9523;42.650;23.386;2023-04-23T07:17:55;94658.09;;;11.41;100.00
18790;BME280;9523;42.650;23.386;2023-04-23T07:20:22;94664.97;;;11.42;100.00
18790;BME280;9523;42.650;23.386;2023-04-23T07:22:51;94657.16;;;11.50;100.00
18790;BME280;9523;42.650;23.386;2023-04-23T07:25:20;94661.66;;;11.63;100.00
18790;BME280;9523;42.650;23.386;2023-04-23T07:27:49;94661.38;;;11.78;100.00
18790;BME280;9523;42.650;23.386;2023-04-23T07:30:16;94644.66;;;11.83;100.00
18790;BME280;9523;42.650;23.386;2023-04-23T07:32:43;94645.44;;;11.84;100.00
18790;BME280;9523;42.650;23.386;2023-04-23T07:35:10;94665.78;;;12.10;100.00
18790;BME280;9523;42.650;23.386;2023-04-23T07:37:37;94655.81;;;12.21;100.00
18790;BME280;9523;42.650;23.386;2023-04-23T07:40:05;94657.84;;;12.38;100.00
18790;BME280;9523;42.650;23.386;2023-04-23T07:42:34;94667.47;;;12.56;100.00
18790;BME280;9523;42.650;23.386;2023-04-23T07:45:01;94663.00;;;12.79;100.00
18790;BME280;9523;42.650;23.386;2023-04-23T07:47:27;94666.03;;;13.08;100.00
18790;BME280;9523;42.650;23.386;2023-04-23T07:49:54;94671.38;;;13.39;100.00
18790;BME280;9523;42.650;23.386;2023-04-23T07:52:21;94664.16;;;13.61;98.03
18790;BME280;9523;42.650;23.386;2023-04-23T07:54:48;94658.69;;;13.89;92.27
18790;BME280;9523;42.650;23.386;2023-04-23T07:57:15;94662.50;;;14.13;90.49
18790;BME280;9523;42.650;23.386;2023-04-23T07:59:43;94658.69;;;14.45;88.62
18790;BME280;9523;42.650;23.386;2023-04-23T08:02:09;94659.03;;;14.70;84.84
18790;BME280;9523;42.650;23.386;2023-04-23T08:04:36;94663.56;;;14.86;82.93
18790;BME280;9523;42.650;23.386;2023-04-23T08:07:03;94666.22;;;14.95;82.21
18790;BME280;9523;42.650;23.386;2023-04-23T08:09:30;94668.41;;;15.01;80.07
18790;BME280;9523;42.650;23.386;2023-04-23T08:11:57;94658.56;;;15.19;77.08
18790;BME280;9523;42.650;23.386;2023-04-23T08:14:24;94659.50;;;15.23;76.32
18790;BME280;9523;42.650;23.386;2023-04-23T08:16:52;94666.81;;;15.26;75.65
18790;BME280;9523;42.650;23.386;2023-04-23T08:19:19;94647.00;;;15.24;75.32
18790;BME280;9523;42.650;23.386;2023-04-23T08:21:46;94656.31;;;15.47;73.36
18790;BME280;9523;42.650;23.386;2023-04-23T08:24:12;94660.53;;;15.57;72.71
18790;BME280;9523;42.650;23.386;2023-04-23T08:26:39;94657.41;;;15.55;71.30
18790;BME280;9523;42.650;23.386;2023-04-23T08:29:06;94651.66;;;15.35;70.59
18790;BME280;9523;42.650;23.386;2023-04-23T08:31:33;94650.81;;;15.61;70.79
18790;BME280;9523;42.650;23.386;2023-04-23T08:34:01;94649.53;;;15.75;68.74
18790;BME280;9523;42.650;23.386;2023-04-23T08:36:28;94644.59;;;15.94;67.92
18790;BME280;9523;42.650;23.386;2023-04-23T08:38:56;94645.00;;;16.05;68.31
18790;BME280;9523;42.650;23.386;2023-04-23T08:41:26;94636.25;;;16.34;66.79
18790;BME280;9523;42.650;23.386;2023-04-23T08:44:02;94637.78;;;16.43;63.77
18790;BME280;9523;42.650;23.386;2023-04-23T08:46:32;94637.84;;;16.56;62.68
18790;BME280;9523;42.650;23.386;2023-04-23T08:49:03;94637.47;;;16.66;62.53
18790;BME280;9523;42.650;23.386;2023-04-23T08:51:36;94635.84;;;16.73;61.21
18790;BME280;9523;42.650;23.386;2023-04-23T08:54:04;94637.09;;;16.76;59.85
18790;BME280;9523;42.650;23.386;2023-04-23T08:56:31;94640.28;;;16.90;58.90
18790;BME280;9523;42.650;23.386;2023-04-23T08:58:58;94628.69;;;17.40;58.67
18790;BME280;9523;42.650;23.386;2023-04-23T09:01:28;94631.22;;;18.29;53.90
18790;BME280;9523;42.650;23.386;2023-04-23T09:03:55;94625.22;;;19.24;50.66
18790;BME280;9523;42.650;23.386;2023-04-23T09:06:24;94631.72;;;20.45;48.44
18790;BME280;9523;42.650;23.386;2023-04-23T09:08:51;94627.22;;;21.23;43.70
18790;BME280;9523;42.650;23.386;2023-04-23T09:11:19;94617.13;;;21.58;43.40
18790;BME280;9523;42.650;23.386;2023-04-23T09:13:48;94618.00;;;22.34;42.35
18790;BME280;9523;42.650;23.386;2023-04-23T09:16:14;94613.81;;;22.63;40.61
18790;BME280;9523;42.650;23.386;2023-04-23T09:18:41;94614.00;;;22.47;40.63
18790;BME280;9523;42.650;23.386;2023-04-23T09:21:09;94622.06;;;22.73;40.96
18790;BME280;9523;42.650;23.386;2023-04-23T09:23:39;94607.22;;;22.83;39.38
18790;BME280;9523;42.650;23.386;2023-04-23T09:26:07;94604.84;;;23.08;37.68
18790;BME280;9523;42.650;23.386;2023-04-23T09:28:34;94605.09;;;23.29;38.23
18790;BME280;9523;42.650;23.386;2023-04-23T09:31:01;94590.28;;;23.90;37.23
18790;BME280;9523;42.650;23.386;2023-04-23T09:33:33;94600.47;;;24.61;34.08
18790;BME280;9523;42.650;23.386;2023-04-23T09:36:04;94598.31;;;24.85;34.39
18790;BME280;9523;42.650;23.386;2023-04-23T09:38:33;94594.22;;;25.19;35.68
18790;BME280;9523;42.650;23.386;2023-04-23T09:41:19;94585.31;;;25.08;33.64
18790;BME280;9523;42.650;23.386;2023-04-23T09:43:47;94591.72;;;26.11;32.22
18790;BME280;9523;42.650;23.386;2023-04-23T09:46:13;94576.66;;;26.06;32.08
18790;BME280;9523;42.650;23.386;2023-04-23T09:48:40;94584.75;;;25.89;32.58
18790;BME280;9523;42.650;23.386;2023-04-23T09:51:07;94592.44;;;25.65;33.80
18790;BME280;9523;42.650;23.386;2023-04-23T09:53:40;94583.22;;;25.88;33.14
18790;BME280;9523;42.650;23.386;2023-04-23T09:56:09;94574.13;;;25.06;33.81
18790;BME280;9523;42.650;23.386;2023-04-23T09:58:39;94567.97;;;24.37;34.09
18790;BME280;9523;42.650;23.386;2023-04-23T10:01:06;94565.47;;;24.72;34.23
18790;BME280;9523;42.650;23.386;2023-04-23T10:03:33;94577.78;;;25.59;33.57
18790;BME280;9523;42.650;23.386;2023-04-23T10:06:00;94573.91;;;25.64;30.57
18790;BME280;9523;42.650;23.386;2023-04-23T10:08:29;94563.53;;;25.84;31.37
18790;BME280;9523;42.650;23.386;2023-04-23T10:10:57;94565.44;;;26.08;30.37
18790;BME280;9523;42.650;23.386;2023-04-23T10:13:25;94562.75;;;26.01;29.49
18790;BME280;9523;42.650;23.386;2023-04-23T10:15:53;94555.41;;;25.55;30.45
18790;BME280;9523;42.650;23.386;2023-04-23T10:18:20;94551.94;;;25.80;29.96
18790;BME280;9523;42.650;23.386;2023-04-23T10:20:48;94534.91;;;26.43;29.91
18790;BME280;9523;42.650;23.386;2023-04-23T10:23:16;94539.47;;;26.63;29.67
18790;BME280;9523;42.650;23.386;2023-04-23T10:25:46;94549.88;;;26.76;29.65
18790;BME280;9523;42.650;23.386;2023-04-23T10:28:14;94539.88;;;26.66;28.37
18790;BME280;9523;42.650;23.386;2023-04-23T10:30:45;94541.09;;;26.50;29.66
18790;BME280;9523;42.650;23.386;2023-04-23T10:33:13;94533.38;;;26.38;28.83
18790;BME280;9523;42.650;23.386;2023-04-23T10:35:40;94526.06;;;26.07;28.54
18790;BME280;9523;42.650;23.386;2023-04-23T10:38:07;94531.47;;;26.07;28.23
18790;BME280;9523;42.650;23.386;2023-04-23T10:40:37;94518.69;;;26.32;27.90
18790;BME280;9523;42.650;23.386;2023-04-23T10:43:06;94518.34;;;25.66;27.70
18790;BME280;9523;42.650;23.386;2023-04-23T10:45:32;94520.66;;;25.93;26.80
18790;BME280;9523;42.650;23.386;2023-04-23T10:48:01;94517.13;;;26.42;28.97
18790;BME280;9523;42.650;23.386;2023-04-23T10:50:31;94509.66;;;26.88;29.29
18790;BME280;9523;42.650;23.386;2023-04-23T10:53:00;94488.94;;;26.32;27.47
18790;BME280;9523;42.650;23.386;2023-04-23T10:55:29;94489.72;;;26.43;26.32
18790;BME280;9523;42.650;23.386;2023-04-23T10:57:58;94487.41;;;26.38;27.15
18790;BME280;9523;42.650;23.386;2023-04-23T11:00:26;94487.31;;;26.59;26.86
18790;BME280;9523;42.650;23.386;2023-04-23T11:02:54;94489.50;;;26.96;27.35
18790;BME280;9523;42.650;23.386;2023-04-23T11:05:22;94489.56;;;27.51;27.97
18790;BME280;9523;42.650;23.386;2023-04-23T11:08:03;94479.84;;;28.09;26.33
18790;BME280;9523;42.650;23.386;2023-04-23T11:10:31;94485.50;;;27.81;27.87
18790;BME280;9523;42.650;23.386;2023-04-23T11:16:15;94475.13;;;28.51;25.95
18790;BME280;9523;42.650;23.386;2023-04-23T11:18:59;94473.56;;;27.75;25.95
18790;BME280;9523;42.650;23.386;2023-04-23T11:21:57;94470.47;;;28.17;25.78
18790;BME280;9523;42.650;23.386;2023-04-23T11:24:27;94460.22;;;28.69;24.91
18790;BME280;9523;42.650;23.386;2023-04-23T11:26:54;94471.84;;;28.70;24.51
18790;BME280;9523;42.650;23.386;2023-04-23T11:29:23;94459.88;;;28.30;26.20
18790;BME280;9523;42.650;23.386;2023-04-23T11:31:50;94465.38;;;28.90;24.97
18790;BME280;9523;42.650;23.386;2023-04-23T11:34:18;94460.09;;;28.80;25.46
18790;BME280;9523;42.650;23.386;2023-04-23T11:36:46;94430.97;;;27.72;23.41
18790;BME280;9523;42.650;23.386;2023-04-23T11:39:15;94450.41;;;28.04;23.51
18790;BME280;9523;42.650;23.386;2023-04-23T11:41:43;94446.13;;;28.10;24.39
18790;BME280;9523;42.650;23.386;2023-04-23T11:44:11;94440.00;;;27.99;22.11
18790;BME280;9523;42.650;23.386;2023-04-23T11:46:38;94439.25;;;27.98;22.78
18790;BME280;9523;42.650;23.386;2023-04-23T11:49:05;94449.78;;;28.64;22.71
18790;BME280;9523;42.650;23.386;2023-04-23T11:51:34;94441.31;;;28.25;24.14
18790;BME280;9523;42.650;23.386;2023-04-23T11:54:02;94430.00;;;28.98;23.02
18790;BME280;9523;42.650;23.386;2023-04-23T11:56:31;94441.06;;;28.80;21.37
18790;BME280;9523;42.650;23.386;2023-04-23T11:59:00;94427.06;;;27.76;21.84
18790;BME280;9523;42.650;23.386;2023-04-23T12:01:42;94420.84;;;27.76;23.95
18790;BME280;9523;42.650;23.386;2023-04-23T12:04:10;94424.88;;;28.73;21.98
18790;BME280;9523;42.650;23.386;2023-04-23T12:06:41;94419.19;;;28.94;22.89
18790;BME280;9523;42.650;23.386;2023-04-23T12:09:08;94417.97;;;28.95;21.93
18790;BME280;9523;42.650;23.386;2023-04-23T12:11:40;94418.47;;;28.86;21.77
18790;BME280;9523;42.650;23.386;2023-04-23T12:14:08;94403.72;;;29.14;20.69
18790;BME280;9523;42.650;23.386;2023-04-23T12:16:37;94422.72;;;29.45;20.91
18790;BME280;9523;42.650;23.386;2023-04-23T12:19:07;94421.28;;;29.36;22.01
18790;BME280;9523;42.650;23.386;2023-04-23T12:21:34;94396.09;;;30.02;20.47
18790;BME280;9523;42.650;23.386;2023-04-23T12:24:12;94406.19;;;30.25;20.38
18790;BME280;9523;42.650;23.386;2023-04-23T12:26:40;94412.00;;;30.47;20.54
18790;BME280;9523;42.650;23.386;2023-04-23T12:29:08;94410.38;;;29.87;20.56
18790;BME280;9523;42.650;23.386;2023-04-23T12:31:36;94402.25;;;28.83;21.44
18790;BME280;9523;42.650;23.386;2023-04-23T12:34:05;94408.56;;;29.03;21.20
18790;BME280;9523;42.650;23.386;2023-04-23T12:36:33;94401.19;;;28.77;21.70
18790;BME280;9523;42.650;23.386;2023-04-23T12:39:20;94401.16;;;29.34;21.01
18790;BME280;9523;42.650;23.386;2023-04-23T12:41:50;94403.88;;;30.04;20.25
18790;BME280;9523;42.650;23.386;2023-04-23T12:44:17;94397.13;;;30.31;19.63
18790;BME280;9523;42.650;23.386;2023-04-23T12:46:44;94396.25;;;30.15;20.47
18790;BME280;9523;42.650;23.386;2023-04-23T12:49:11;94395.44;;;30.38;19.34
18790;BME280;9523;42.650;23.386;2023-04-23T12:51:38;94389.84;;;29.35;20.23
18790;BME280;9523;42.650;23.386;2023-04-23T12:54:05;94388.31;;;27.76;20.54
18790;BME280;9523;42.650;23.386;2023-04-23T12:56:32;94389.34;;;26.06;23.29
18790;BME280;9523;42.650;23.386;2023-04-23T12:59:20;94382.84;;;24.94;24.44
18790;BME280;9523;42.650;23.386;2023-04-23T13:02:29;94389.84;;;24.05;25.86
18790;BME280;9523;42.650;23.386;2023-04-23T13:05:09;94390.59;;;23.40;26.77
18790;BME280;9523;42.650;23.386;2023-04-23T13:07:36;94380.25;;;22.98;27.33